createdAt,value
2022-12-14T00:01:20.556Z,8.80
2022-12-14T00:03:23.041Z,8.17
2022-12-14T00:05:24.832Z,10.47
2022-12-14T00:07:28.383Z,9.50
2022-12-14T00:09:30.319Z,15.23
2022-12-14T00:11:33.102Z,10.27
2022-12-14T00:13:34.944Z,12.03
2022-12-14T00:15:37.872Z,10.70
2022-12-14T00:17:40.169Z,10.07
2022-12-14T00:19:42.040Z,10.70
2022-12-14T00:21:43.845Z,10.77
2022-12-14T00:23:48.998Z,11.53
2022-12-14T00:25:50.809Z,11.23
2022-12-14T00:27:52.624Z,11.20
2022-12-14T00:29:54.485Z,11.03
2022-12-14T00:31:56.547Z,14.37
2022-12-14T00:33:58.912Z,11.30
2022-12-14T00:36:01.340Z,10.97
2022-12-14T00:38:03.406Z,7.93
2022-12-14T00:40:07.235Z,10.10
2022-12-14T00:42:08.871Z,12.00
2022-12-14T00:44:10.616Z,10.90
2022-12-14T00:46:12.430Z,10.50
2022-12-14T00:48:14.956Z,9.53
2022-12-14T00:50:16.802Z,12.37
2022-12-14T00:52:18.600Z,9.77
2022-12-14T00:54:20.305Z,9.40
2022-12-14T00:56:22.001Z,12.90
2022-12-14T00:58:25.219Z,10.13
2022-12-14T01:00:27.259Z,9.07
2022-12-14T01:02:29.129Z,12.20
2022-12-14T01:04:31.103Z,10.40
2022-12-14T01:06:32.814Z,11.33
2022-12-14T01:08:37.506Z,9.80
2022-12-14T01:10:40.655Z,8.50
2022-12-14T01:12:42.384Z,12.93
2022-12-14T01:14:44.140Z,13.07
2022-12-14T01:16:46.069Z,11.07
2022-12-14T01:18:48.093Z,16.70
2022-12-14T01:20:49.881Z,10.60
2022-12-14T01:22:56.237Z,11.40
2022-12-14T01:24:57.879Z,10.47
2022-12-14T01:26:59.652Z,11.90
2022-12-14T01:29:02.017Z,13.70
2022-12-14T01:31:26.785Z,14.20
2022-12-14T01:33:29.787Z,14.33
2022-12-14T01:35:33.812Z,11.33
2022-12-14T01:37:35.755Z,13.67
2022-12-14T01:39:37.416Z,11.63
2022-12-14T01:41:49.374Z,16.10
2022-12-14T01:43:53.840Z,14.03
2022-12-14T01:45:56.649Z,13.63
2022-12-14T01:48:01.565Z,11.10
2022-12-14T01:50:25.667Z,13.60
2022-12-14T01:52:43.879Z,14.63
2022-12-14T01:55:11.714Z,13.97
2022-12-14T01:57:15.464Z,13.60
2022-12-14T01:59:25.837Z,13.00
2022-12-14T02:01:27.729Z,12.17
2022-12-14T02:03:37.390Z,14.20
2022-12-14T02:05:46.200Z,13.60
2022-12-14T02:07:49.415Z,14.47
2022-12-14T02:09:53.101Z,14.43
2022-12-14T02:12:04.898Z,14.73
2022-12-14T02:14:06.762Z,15.97
2022-12-14T02:16:08.578Z,14.77
2022-12-14T02:18:16.907Z,12.03
2022-12-14T02:20:20.612Z,13.50
2022-12-14T02:22:43.353Z,16.43
2022-12-14T02:25:25.616Z,14.57
2022-12-14T02:28:03.665Z,17.57
2022-12-14T02:30:14.473Z,16.73
2022-12-14T02:32:27.544Z,13.57
2022-12-14T02:34:41.021Z,16.67
2022-12-14T02:36:53.036Z,16.10
2022-12-14T02:39:23.389Z,16.30
2022-12-14T02:41:25.058Z,15.17
2022-12-14T02:43:37.444Z,19.60
2022-12-14T02:46:18.939Z,17.50
2022-12-14T02:48:30.629Z,18.00
2022-12-14T02:50:44.834Z,17.10
2022-12-14T02:53:08.506Z,14.50
2022-12-14T02:55:27.787Z,16.00
2022-12-14T02:57:48.212Z,14.30
2022-12-14T02:59:52.762Z,14.97
2022-12-14T03:01:55.932Z,14.33
2022-12-14T03:03:58.021Z,17.20
2022-12-14T03:06:02.246Z,15.37
2022-12-14T03:08:12.030Z,16.13
2022-12-14T03:10:38.920Z,16.23
2022-12-14T03:12:45.291Z,16.83
2022-12-14T03:14:52.362Z,15.87
2022-12-14T03:16:57.039Z,21.57
2022-12-14T03:19:33.874Z,16.83
2022-12-14T03:21:39.803Z,17.10
2022-12-14T03:23:43.761Z,18.30
2022-12-14T03:25:50.874Z,18.47
2022-12-14T03:28:03.484Z,17.30
2022-12-14T03:30:14.771Z,13.77
2022-12-14T03:32:20.351Z,20.00
2022-12-14T03:34:26.913Z,16.20
2022-12-14T03:36:49.974Z,18.77
2022-12-14T03:38:58.853Z,26.97
2022-12-14T03:41:18.931Z,27.03
2022-12-14T03:43:36.335Z,18.17
2022-12-14T03:45:50.049Z,19.67
2022-12-14T03:48:09.334Z,18.50
2022-12-14T03:50:40.127Z,20.97
2022-12-14T03:53:00.620Z,24.57
2022-12-14T03:55:08.937Z,20.43
2022-12-14T03:57:29.434Z,22.83
2022-12-14T03:59:57.653Z,21.80
2022-12-14T04:02:09.183Z,20.10
2022-12-14T04:04:39.317Z,16.73
2022-12-14T04:07:00.460Z,19.37
2022-12-14T04:09:20.184Z,19.57
2022-12-14T04:11:42.281Z,22.07
2022-12-14T04:14:21.182Z,21.83
2022-12-14T04:16:48.925Z,19.40
2022-12-14T04:19:00.325Z,21.07
2022-12-14T04:21:18.531Z,21.80
2022-12-14T04:23:44.309Z,21.83
2022-12-14T04:26:05.063Z,20.00
2022-12-14T04:28:44.553Z,20.47
2022-12-14T04:30:46.341Z,21.43
2022-12-14T04:33:21.549Z,27.83
2022-12-14T04:35:23.133Z,21.60
2022-12-14T04:37:28.177Z,21.33
2022-12-14T04:39:41.678Z,24.87
2022-12-14T04:41:49.146Z,22.40
2022-12-14T04:43:54.574Z,23.23
2022-12-14T04:46:04.176Z,22.43
2022-12-14T04:48:26.077Z,21.90
2022-12-14T04:50:35.517Z,22.70
2022-12-14T04:52:45.379Z,19.90
2022-12-14T04:54:47.030Z,25.57
2022-12-14T04:57:05.151Z,21.80
2022-12-14T04:59:07.486Z,23.40
2022-12-14T05:01:26.730Z,20.63
2022-12-14T05:03:35.661Z,23.83
2022-12-14T05:05:49.964Z,21.50
2022-12-14T05:08:34.474Z,31.53
2022-12-14T05:10:46.290Z,28.67
2022-12-14T05:12:50.828Z,20.17
2022-12-14T05:15:02.172Z,24.43
2022-12-14T05:17:08.983Z,32.37
2022-12-14T05:19:11.428Z,24.20
2022-12-14T05:21:32.389Z,21.33
2022-12-14T05:23:34.121Z,22.93
2022-12-14T05:25:35.789Z,23.33
2022-12-14T05:27:37.592Z,22.90
2022-12-14T05:29:39.258Z,19.73
2022-12-14T05:31:40.984Z,22.10
2022-12-14T05:33:42.824Z,21.33
2022-12-14T05:35:44.565Z,21.63
2022-12-14T05:37:46.493Z,21.50
2022-12-14T05:39:51.203Z,20.87
2022-12-14T05:41:53.542Z,23.30
2022-12-14T05:43:55.330Z,21.17
2022-12-14T05:46:01.522Z,23.97
2022-12-14T05:48:03.401Z,24.23
2022-12-14T05:50:05.667Z,22.43
2022-12-14T05:52:07.592Z,20.47
2022-12-14T05:54:09.354Z,22.40
2022-12-14T05:56:11.803Z,23.03
2022-12-14T05:58:13.553Z,22.00
2022-12-14T06:00:15.723Z,21.03
2022-12-14T06:02:17.523Z,22.70
2022-12-14T06:04:19.421Z,24.27
2022-12-14T06:06:21.467Z,22.13
2022-12-14T06:08:23.284Z,22.63
2022-12-14T06:10:25.403Z,21.43
2022-12-14T06:12:27.189Z,23.00
2022-12-14T06:14:29.108Z,23.17
2022-12-14T06:16:31.104Z,20.20
2022-12-14T06:18:32.802Z,18.10
2022-12-14T06:20:34.529Z,20.50
2022-12-14T06:22:36.220Z,21.90
2022-12-14T06:24:38.040Z,22.63
2022-12-14T06:26:43.288Z,21.73
2022-12-14T06:28:45.262Z,24.83
2022-12-14T06:30:50.013Z,22.50
2022-12-14T06:32:51.806Z,23.27
2022-12-14T06:34:53.595Z,22.77
2022-12-14T06:36:55.369Z,26.33
2022-12-14T06:39:00.422Z,25.87
2022-12-14T06:41:07.875Z,26.50
2022-12-14T06:43:09.617Z,28.00
2022-12-14T06:45:11.527Z,29.20
2022-12-14T06:47:13.378Z,25.93
2022-12-14T06:49:16.087Z,25.67
2022-12-14T06:51:17.807Z,29.57
2022-12-14T06:53:19.528Z,29.07
2022-12-14T06:55:21.575Z,28.50
2022-12-14T06:57:23.312Z,29.10
2022-12-14T06:59:25.407Z,29.37
2022-12-14T07:01:27.791Z,33.73
2022-12-14T07:03:30.234Z,34.97
2022-12-14T07:05:32.452Z,34.53
2022-12-14T07:07:35.005Z,33.17
2022-12-14T07:09:36.666Z,32.57
2022-12-14T07:11:38.340Z,32.27
2022-12-14T07:13:40.590Z,35.83
2022-12-14T07:15:42.364Z,36.93
2022-12-14T07:17:44.113Z,34.30
2022-12-14T07:19:46.423Z,33.73
2022-12-14T07:21:50.939Z,32.17
2022-12-14T07:23:52.982Z,39.97
2022-12-14T07:26:00.698Z,33.50
2022-12-14T07:28:02.414Z,41.23
2022-12-14T07:30:04.417Z,36.37
2022-12-14T07:32:06.535Z,35.10
2022-12-14T07:34:12.434Z,39.50
2022-12-14T07:36:17.176Z,35.37
2022-12-14T07:38:19.031Z,36.50
2022-12-14T07:40:21.566Z,34.90
2022-12-14T07:42:23.310Z,38.10
2022-12-14T07:44:25.113Z,42.63
2022-12-14T07:46:28.724Z,37.90
2022-12-14T07:48:31.700Z,37.03
2022-12-14T07:50:33.420Z,39.03
2022-12-14T07:52:37.534Z,39.20
2022-12-14T07:54:39.435Z,40.33
2022-12-14T07:56:43.437Z,39.40
2022-12-14T07:58:45.444Z,36.80
2022-12-14T08:00:48.777Z,39.20
2022-12-14T08:02:50.587Z,43.60
2022-12-14T08:04:52.377Z,35.17
2022-12-14T08:06:54.967Z,38.90
2022-12-14T08:08:57.648Z,41.10
2022-12-14T08:10:59.789Z,36.93
2022-12-14T08:13:01.485Z,36.90
2022-12-14T08:15:03.449Z,38.83
2022-12-14T08:17:05.132Z,42.47
2022-12-14T08:19:06.819Z,38.77
2022-12-14T08:21:10.604Z,36.57
2022-12-14T08:23:12.409Z,39.07
2022-12-14T08:25:14.332Z,35.10
2022-12-14T08:27:16.155Z,37.33
2022-12-14T08:29:18.553Z,37.87
2022-12-14T08:31:22.016Z,35.53
2022-12-14T08:33:24.250Z,39.10
2022-12-14T08:35:26.078Z,33.07
2022-12-14T08:37:27.764Z,37.70
2022-12-14T08:39:29.392Z,39.57
2022-12-14T08:41:32.067Z,36.53
2022-12-14T08:43:34.227Z,40.60
2022-12-14T08:45:36.113Z,57.67
2022-12-14T08:47:37.945Z,46.83
2022-12-14T08:49:39.844Z,57.37
2022-12-14T08:51:42.008Z,38.33
2022-12-14T08:53:44.466Z,46.83
2022-12-14T08:55:46.385Z,40.57
2022-12-14T08:57:48.355Z,33.93
2022-12-14T09:00:01.284Z,32.30
2022-12-14T09:02:04.025Z,34.40
2022-12-14T09:04:08.411Z,35.40
2022-12-14T09:06:13.146Z,41.00
2022-12-14T09:08:14.922Z,34.73
2022-12-14T09:10:16.684Z,36.50
2022-12-14T09:12:18.342Z,35.43
2022-12-14T09:14:20.083Z,37.67
2022-12-14T09:16:23.324Z,35.53
2022-12-14T09:18:25.259Z,34.20
2022-12-14T09:20:27.108Z,34.90
2022-12-14T09:22:29.031Z,31.47
2022-12-14T09:24:30.795Z,36.90
2022-12-14T09:26:33.907Z,34.93
2022-12-14T09:28:38.031Z,38.27
2022-12-14T09:30:39.728Z,39.10
2022-12-14T09:32:42.243Z,44.80
2022-12-14T09:34:44.301Z,37.63
2022-12-14T09:36:45.984Z,42.03
2022-12-14T09:38:52.205Z,39.90
2022-12-14T09:40:58.590Z,33.10
2022-12-14T09:43:05.894Z,37.37
2022-12-14T09:45:18.422Z,36.57
2022-12-14T09:47:22.184Z,36.13
2022-12-14T09:49:34.520Z,36.97
2022-12-14T09:51:37.416Z,38.40
2022-12-14T09:53:42.133Z,37.47
2022-12-14T09:55:46.776Z,39.30
2022-12-14T09:57:53.486Z,40.70
2022-12-14T09:59:55.759Z,44.33
2022-12-14T10:02:32.469Z,36.37
2022-12-14T10:04:39.402Z,40.90
2022-12-14T10:06:50.078Z,37.63
2022-12-14T10:09:17.298Z,42.27
2022-12-14T10:11:29.803Z,37.17
2022-12-14T10:14:00.049Z,43.57
2022-12-14T10:16:07.908Z,38.60
2022-12-14T10:19:03.052Z,42.80
2022-12-14T10:21:06.446Z,37.93
2022-12-14T10:23:18.178Z,44.40
2022-12-14T10:25:27.809Z,44.40
2022-12-14T10:27:53.897Z,45.60
2022-12-14T10:30:05.300Z,43.87
2022-12-14T10:32:15.832Z,45.13
2022-12-14T10:34:20.359Z,43.17
2022-12-14T10:36:33.590Z,45.43
2022-12-14T10:38:52.563Z,41.40
2022-12-14T10:41:18.185Z,36.47
2022-12-14T10:43:22.765Z,47.63
2022-12-14T10:45:47.200Z,37.83
2022-12-14T10:47:54.428Z,45.00
2022-12-14T10:50:17.067Z,37.77
2022-12-14T10:52:31.099Z,37.87
2022-12-14T10:54:38.541Z,42.20
2022-12-14T10:56:43.162Z,34.33
2022-12-14T10:58:44.993Z,35.70
2022-12-14T11:00:54.554Z,38.80
2022-12-14T11:02:58.080Z,38.47
2022-12-14T11:05:03.879Z,38.20
2022-12-14T11:07:11.552Z,37.07
2022-12-14T11:09:24.286Z,51.77
2022-12-14T11:11:27.198Z,47.20
2022-12-14T11:13:29.144Z,51.10
2022-12-14T11:15:34.356Z,49.53
2022-12-14T11:17:44.274Z,40.47
2022-12-14T11:20:05.133Z,42.80
2022-12-14T11:22:21.761Z,35.07
2022-12-14T11:24:26.414Z,45.87
2022-12-14T11:26:38.256Z,40.53
2022-12-14T11:28:49.743Z,42.97
2022-12-14T11:31:05.531Z,33.07
2022-12-14T11:33:13.665Z,36.57
2022-12-14T11:35:20.399Z,38.70
2022-12-14T11:37:23.418Z,36.37
2022-12-14T11:39:25.785Z,40.77
2022-12-14T11:41:35.314Z,38.20
2022-12-14T11:43:40.640Z,39.07
2022-12-14T11:45:51.078Z,39.50
2022-12-14T11:48:14.479Z,36.87
2022-12-14T11:50:25.460Z,38.10
2022-12-14T11:52:41.730Z,39.20
2022-12-14T11:54:50.158Z,35.23
2022-12-14T11:56:58.520Z,34.00
2022-12-14T11:59:00.291Z,36.13
2022-12-14T12:01:15.260Z,35.40
2022-12-14T12:03:37.376Z,33.80
2022-12-14T12:05:43.938Z,31.30
2022-12-14T12:07:53.055Z,43.07
2022-12-14T12:09:56.002Z,42.57
2022-12-14T12:11:57.912Z,38.33
2022-12-14T12:14:14.693Z,38.47
2022-12-14T12:16:21.034Z,37.80
2022-12-14T12:18:33.154Z,37.67
2022-12-14T12:20:39.868Z,38.37
2022-12-14T12:22:46.682Z,36.23
2022-12-14T12:25:24.810Z,37.50
2022-12-14T12:27:20.880Z,38.17
2022-12-14T12:29:44.364Z,32.13
2022-12-14T12:31:58.925Z,38.57
2022-12-14T12:34:12.126Z,33.30
2022-12-14T12:36:23.497Z,33.47
2022-12-14T12:38:39.692Z,39.20
2022-12-14T12:40:59.205Z,32.83
2022-12-14T12:43:23.953Z,34.83
2022-12-14T12:45:39.577Z,31.03
2022-12-14T12:47:50.601Z,32.80
2022-12-14T12:49:52.554Z,32.70
2022-12-14T12:52:01.211Z,33.60
2022-12-14T12:54:08.553Z,33.40
2022-12-14T12:56:20.716Z,39.30
2022-12-14T12:58:30.544Z,35.30
2022-12-14T13:00:33.797Z,38.73
2022-12-14T13:02:40.702Z,36.77
2022-12-14T13:04:52.145Z,39.63
2022-12-14T13:07:03.370Z,44.00
2022-12-14T13:09:33.148Z,43.27
2022-12-14T13:11:40.268Z,82.63
2022-12-14T13:13:47.195Z,46.00
2022-12-14T13:15:52.925Z,74.87
2022-12-14T13:18:40.675Z,54.60
2022-12-14T13:20:38.608Z,94.80
2022-12-14T13:22:41.132Z,123.57
2022-12-14T13:24:47.006Z,45.53
2022-12-14T13:26:58.710Z,52.27
2022-12-14T13:29:23.921Z,82.47
2022-12-14T13:31:28.818Z,79.10
2022-12-14T13:33:33.986Z,273.33
2022-12-14T13:36:00.675Z,196.40
2022-12-14T13:38:46.920Z,81.83
2022-12-14T13:41:14.601Z,269.90
2022-12-14T13:43:34.318Z,338.07
2022-12-14T13:45:41.392Z,394.93
2022-12-14T13:47:48.641Z,416.73
2022-12-14T13:50:26.814Z,309.50
2022-12-14T13:52:44.864Z,299.63
2022-12-14T13:54:47.516Z,69.00
2022-12-14T13:56:49.794Z,351.57
2022-12-14T13:58:54.122Z,263.00
2022-12-14T14:01:35.708Z,337.33
2022-12-14T14:03:37.682Z,584.60
2022-12-14T14:05:44.921Z,422.53
2022-12-14T14:07:53.658Z,204.90
2022-12-14T14:09:55.379Z,394.03
2022-12-14T14:12:02.239Z,294.97
2022-12-14T14:14:20.469Z,179.63
2022-12-14T14:16:39.034Z,263.63
2022-12-14T14:19:04.511Z,400.83
2022-12-14T14:21:21.391Z,514.00
2022-12-14T14:23:23.063Z,102.73
2022-12-14T14:25:33.605Z,213.20
2022-12-14T14:27:41.847Z,242.77
2022-12-14T14:29:46.715Z,366.90
2022-12-14T14:32:41.493Z,434.63
2022-12-14T14:34:45.768Z,466.57
2022-12-14T14:36:47.816Z,259.60
2022-12-14T14:38:50.909Z,540.17
2022-12-14T14:43:29.161Z,398.57
2022-12-14T14:45:38.310Z,531.37
2022-12-14T14:47:40.861Z,690.37
2022-12-14T14:49:44.154Z,614.40
2022-12-14T14:51:45.821Z,295.00
2022-12-14T14:53:50.177Z,439.47
2022-12-14T14:56:19.112Z,396.27
2022-12-14T14:58:25.282Z,755.77
2022-12-14T15:00:29.063Z,565.50
2022-12-14T15:02:34.168Z,410.73
2022-12-14T15:04:51.713Z,174.30
2022-12-14T15:07:05.589Z,110.73
2022-12-14T15:09:11.083Z,68.13
2022-12-14T15:11:23.505Z,57.17
2022-12-14T15:13:37.769Z,59.90
2022-12-14T15:15:44.571Z,56.10
2022-12-14T15:17:46.667Z,63.37
2022-12-14T15:19:56.500Z,59.50
2022-12-14T15:22:04.252Z,58.43
2022-12-14T15:24:06.036Z,60.87
2022-12-14T15:26:33.104Z,58.07
2022-12-14T15:28:35.068Z,71.47
2022-12-14T15:30:36.848Z,63.27
2022-12-14T15:32:47.259Z,60.47
2022-12-14T15:35:01.795Z,67.03
2022-12-14T15:37:04.340Z,67.93
2022-12-14T15:39:06.302Z,53.87
2022-12-14T15:41:16.907Z,59.07
2022-12-14T15:43:22.191Z,55.40
2022-12-14T15:45:30.571Z,60.73
2022-12-14T15:47:32.279Z,56.07
2022-12-14T15:49:34.097Z,55.80
2022-12-14T15:51:42.079Z,65.07
2022-12-14T15:53:50.131Z,64.33
2022-12-14T15:56:00.286Z,57.10
2022-12-14T15:58:16.914Z,62.87
2022-12-14T16:00:19.416Z,59.97
2022-12-14T16:02:31.885Z,55.63
2022-12-14T16:04:34.153Z,56.07
2022-12-14T16:06:44.420Z,51.93
2022-12-14T16:08:59.780Z,55.10
2022-12-14T16:11:05.833Z,48.37
2022-12-14T16:13:27.624Z,49.43
2022-12-14T16:15:30.233Z,53.43
2022-12-14T16:17:37.131Z,51.77
2022-12-14T16:19:58.126Z,55.47
2022-12-14T16:22:09.548Z,50.23
2022-12-14T16:24:23.406Z,52.23
2022-12-14T16:26:38.005Z,51.17
2022-12-14T16:28:39.814Z,51.90
2022-12-14T16:30:53.401Z,53.83
2022-12-14T16:33:23.328Z,53.87
2022-12-14T16:35:26.333Z,51.73
2022-12-14T16:37:33.093Z,48.17
2022-12-14T16:39:45.043Z,50.53
2022-12-14T16:41:55.205Z,52.67
2022-12-14T16:44:00.835Z,49.23
2022-12-14T16:46:05.428Z,48.57
2022-12-14T16:48:16.131Z,54.77
2022-12-14T16:50:56.623Z,54.57
2022-12-14T16:52:46.989Z,48.87
2022-12-14T16:55:07.001Z,50.87
2022-12-14T16:57:21.604Z,51.00
2022-12-14T16:59:27.609Z,50.90
2022-12-14T17:01:39.963Z,54.17
2022-12-14T17:03:42.051Z,53.80
2022-12-14T17:05:52.789Z,47.00
2022-12-14T17:07:54.676Z,51.97
2022-12-14T17:09:57.250Z,52.13
2022-12-14T17:12:02.059Z,48.33
2022-12-14T17:14:03.871Z,51.77
2022-12-14T17:16:07.913Z,50.83
2022-12-14T17:18:11.308Z,49.60
2022-12-14T17:20:24.651Z,52.23
2022-12-14T17:22:30.118Z,52.03
2022-12-14T17:24:32.679Z,54.83
2022-12-14T17:26:34.477Z,48.07
2022-12-14T17:28:36.502Z,54.30
2022-12-14T17:30:38.435Z,65.17
2022-12-14T17:32:40.237Z,51.03
2022-12-14T17:34:42.704Z,57.70
2022-12-14T17:36:45.121Z,56.30
2022-12-14T17:38:47.156Z,48.37
2022-12-14T17:40:50.583Z,50.97
2022-12-14T17:42:55.977Z,54.53
2022-12-14T17:44:59.567Z,52.17
2022-12-14T17:47:01.362Z,57.83
2022-12-14T17:49:06.765Z,50.37
2022-12-14T17:51:17.544Z,46.77
2022-12-14T17:53:30.777Z,49.10
2022-12-14T17:55:33.031Z,48.10
2022-12-14T17:57:35.888Z,46.83
2022-12-14T17:59:37.540Z,50.60
2022-12-14T18:01:41.472Z,51.43
2022-12-14T18:03:43.577Z,45.03
2022-12-14T18:05:49.414Z,50.17
2022-12-14T18:07:51.185Z,49.03
2022-12-14T18:09:56.007Z,47.77
2022-12-14T18:12:22.144Z,48.30
2022-12-14T18:14:19.828Z,55.00
2022-12-14T18:16:23.738Z,46.60
2022-12-14T18:18:27.538Z,48.37
2022-12-14T18:20:29.312Z,51.40
2022-12-14T18:22:31.015Z,47.97
2022-12-14T18:24:33.484Z,44.40
2022-12-14T18:26:35.321Z,50.53
2022-12-14T18:28:37.068Z,53.83
2022-12-14T18:30:45.858Z,48.37
2022-12-14T18:32:50.895Z,52.07
2022-12-14T18:34:52.622Z,52.90
2022-12-14T18:36:54.367Z,57.97
2022-12-14T18:38:56.467Z,57.23
2022-12-14T18:40:58.881Z,59.30
2022-12-14T18:43:00.812Z,61.17
2022-12-14T18:45:06.132Z,54.03
2022-12-14T18:47:39.532Z,95.40
2022-12-14T18:49:29.665Z,61.00
2022-12-14T18:51:31.438Z,62.60
2022-12-14T18:53:34.178Z,60.77
2022-12-14T18:55:36.348Z,64.97
2022-12-14T18:57:38.339Z,57.83
2022-12-14T18:59:42.598Z,54.87
2022-12-14T19:01:44.611Z,59.87
2022-12-14T19:03:46.805Z,56.90
2022-12-14T19:05:49.159Z,55.73
2022-12-14T19:07:51.154Z,51.40
2022-12-14T19:09:53.434Z,47.23
2022-12-14T19:11:55.302Z,54.13
2022-12-14T19:13:57.108Z,57.87
2022-12-14T19:15:58.754Z,56.47
2022-12-14T19:18:01.683Z,56.40
2022-12-14T19:20:04.485Z,58.07
2022-12-14T19:22:06.596Z,56.97
2022-12-14T19:24:08.694Z,53.17
2022-12-14T19:26:10.987Z,54.67
2022-12-14T19:28:31.589Z,55.43
2022-12-14T19:30:34.888Z,59.03
2022-12-14T19:32:36.714Z,58.50
2022-12-14T19:34:38.591Z,62.07
2022-12-14T19:36:40.251Z,56.30
2022-12-14T19:38:42.291Z,64.13
2022-12-14T19:40:46.734Z,68.97
2022-12-14T19:42:48.468Z,62.40
2022-12-14T19:44:50.293Z,75.13
2022-12-14T19:46:52.058Z,59.60
2022-12-14T19:48:54.895Z,63.90
2022-12-14T19:50:56.681Z,93.87
2022-12-14T19:52:58.409Z,68.03
2022-12-14T19:55:01.353Z,62.27
2022-12-14T19:57:03.141Z,69.30
2022-12-14T19:59:04.863Z,67.97
2022-12-14T20:01:15.472Z,62.80
2022-12-14T20:03:17.795Z,61.20
2022-12-14T20:05:21.589Z,58.30
2022-12-14T20:07:23.593Z,61.93
2022-12-14T20:09:25.318Z,64.33
2022-12-14T20:11:27.544Z,84.67
2022-12-14T20:13:31.262Z,81.47
2022-12-14T20:15:33.753Z,75.53
2022-12-14T20:17:35.518Z,60.53
2022-12-14T20:19:39.315Z,59.80
2022-12-14T20:21:41.329Z,63.13
2022-12-14T20:23:43.125Z,60.60
2022-12-14T20:25:44.888Z,55.60
2022-12-14T20:27:46.709Z,55.47
2022-12-14T20:29:48.512Z,55.23
2022-12-14T20:31:50.246Z,52.23
2022-12-14T20:33:52.257Z,52.63
2022-12-14T20:35:53.951Z,58.07
2022-12-14T20:37:56.363Z,57.90
2022-12-14T20:39:58.392Z,57.63
2022-12-14T20:42:00.184Z,52.37
2022-12-14T20:44:02.331Z,53.10
2022-12-14T20:46:05.245Z,51.67
2022-12-14T20:48:07.888Z,58.27
2022-12-14T20:50:09.669Z,56.37
2022-12-14T20:52:11.282Z,53.80
2022-12-14T20:54:15.837Z,51.60
2022-12-14T20:56:17.764Z,55.57
2022-12-14T20:58:19.653Z,54.87
2022-12-14T21:00:21.493Z,52.17
2022-12-14T21:02:25.676Z,52.50
2022-12-14T21:04:27.721Z,53.03
2022-12-14T21:06:29.517Z,51.73
2022-12-14T21:08:31.758Z,54.27
2022-12-14T21:10:33.753Z,53.00
2022-12-14T21:12:36.921Z,56.73
2022-12-14T21:14:46.937Z,53.73
2022-12-14T21:16:50.105Z,58.60
2022-12-14T21:18:51.870Z,55.37
2022-12-14T21:20:53.485Z,56.67
2022-12-14T21:22:55.306Z,53.23
2022-12-14T21:25:06.027Z,55.77
2022-12-14T21:27:10.235Z,60.27
2022-12-14T21:29:13.782Z,67.10
2022-12-14T21:31:16.033Z,57.93
2022-12-14T21:33:17.948Z,57.87
2022-12-14T21:35:19.984Z,61.70
2022-12-14T21:37:22.097Z,56.47
2022-12-14T21:39:24.059Z,74.20
2022-12-14T21:41:44.530Z,57.70
2022-12-14T21:43:47.333Z,55.90
2022-12-14T21:45:51.597Z,53.10
2022-12-14T21:47:53.291Z,52.00
2022-12-14T21:49:55.532Z,52.53
2022-12-14T21:51:58.377Z,50.00
2022-12-14T21:54:00.140Z,50.60
2022-12-14T21:56:20.560Z,50.20
2022-12-14T21:58:24.550Z,51.93
2022-12-14T22:00:26.247Z,62.63
2022-12-14T22:02:28.897Z,55.47
2022-12-14T22:04:37.883Z,57.70
2022-12-14T22:06:41.625Z,54.60
2022-12-14T22:08:43.306Z,51.20
2022-12-14T22:10:45.124Z,57.07
2022-12-14T22:12:46.780Z,49.73
2022-12-14T22:14:49.912Z,48.30
2022-12-14T22:16:53.623Z,48.27
2022-12-14T22:18:55.374Z,44.50
2022-12-14T22:21:06.376Z,45.60
2022-12-14T22:23:08.352Z,44.80
2022-12-14T22:25:10.140Z,51.87
2022-12-14T22:27:13.000Z,42.93
2022-12-14T22:29:16.650Z,45.70
2022-12-14T22:31:20.221Z,48.63
2022-12-14T22:33:21.985Z,44.90
2022-12-14T22:35:24.019Z,44.33
2022-12-14T22:37:25.981Z,49.47
2022-12-14T22:39:27.843Z,49.43
2022-12-14T22:41:29.624Z,44.77
2022-12-14T22:43:36.997Z,47.60
2022-12-14T22:45:39.041Z,64.70
2022-12-14T22:47:40.716Z,45.67
2022-12-14T22:49:43.321Z,44.70
2022-12-14T22:51:45.572Z,47.80
2022-12-14T22:53:49.512Z,44.40
2022-12-14T22:55:51.668Z,43.00
2022-12-14T22:57:54.184Z,44.67
2022-12-14T22:59:58.642Z,42.80
2022-12-14T23:02:00.658Z,44.77
2022-12-14T23:04:03.517Z,46.60
2022-12-14T23:06:15.354Z,45.10
2022-12-14T23:08:17.262Z,49.90
2022-12-14T23:10:38.216Z,54.27
2022-12-14T23:12:58.313Z,46.93
2022-12-14T23:15:18.650Z,46.63
2022-12-14T23:17:38.932Z,48.90
2022-12-14T23:20:04.403Z,47.43
2022-12-14T23:22:25.578Z,45.90
2022-12-14T23:24:45.900Z,47.50
2022-12-14T23:27:09.687Z,48.97
2022-12-14T23:29:30.484Z,47.10
2022-12-14T23:31:51.098Z,49.80
2022-12-14T23:34:11.145Z,48.40
2022-12-14T23:36:32.141Z,45.17
2022-12-14T23:38:52.216Z,46.73
2022-12-14T23:41:18.434Z,48.37
2022-12-14T23:43:38.713Z,53.53
2022-12-14T23:45:58.964Z,47.23
2022-12-14T23:48:19.109Z,50.90
2022-12-14T23:50:39.624Z,48.23
2022-12-14T23:53:00.064Z,56.87
2022-12-14T23:55:20.370Z,50.03
2022-12-14T23:57:40.614Z,47.90
